Time;durP1;ratioP1;P1;durP2;ratioP2;P2;SDS_P1;SDS_P2;PMS_P1;PMS_P2;Temp;Humidity;BMP_temperature;BMP_pressure;BME280_temperature;BME280_humidity;BME280_pressure;Samples;Min_cycle;Max_cycle;Signal;HPM_P1;HPM_P2
2023/04/26 00:01:52;;;;;;;4.28;3.20;;;6.30;99.90;;;;;;5071940;28;20566;-69
2023/04/26 00:04:18;;;;;;;3.72;3.30;;;6.30;99.90;;;;;;5071706;28;20224;-68
2023/04/26 00:06:48;;;;;;;8.07;2.88;;;6.20;99.90;;;;;;5072035;28;20224;-69
2023/04/26 00:09:14;;;;;;;2.70;2.50;;;6.20;99.90;;;;;;5071872;28;20211;-69
2023/04/26 00:11:41;;;;;;;3.35;2.78;;;6.20;99.90;;;;;;5071998;28;20905;-68
2023/04/26 00:14:08;;;;;;;3.10;2.80;;;6.20;99.90;;;;;;5071993;28;20224;-67
2023/04/26 00:16:34;;;;;;;4.00;3.60;;;6.20;99.90;;;;;;5070957;28;20200;-67
2023/04/26 00:19:02;;;;;;;4.05;3.03;;;6.20;99.90;;;;;;5072160;28;20201;-68
2023/04/26 00:21:30;;;;;;;5.03;2.80;;;6.20;99.90;;;;;;5071074;28;20299;-68
2023/04/26 00:23:58;;;;;;;5.13;3.28;;;6.20;99.90;;;;;;5071509;28;20318;-68
2023/04/26 00:26:25;;;;;;;5.57;2.90;;;6.10;99.90;;;;;;5071611;28;20207;-68
2023/04/26 00:28:51;;;;;;;3.67;3.33;;;6.10;99.90;;;;;;5071440;28;20200;-68
2023/04/26 00:31:18;;;;;;;3.50;3.03;;;6.10;99.90;;;;;;5071123;28;20207;-68
2023/04/26 00:33:45;;;;;;;3.10;2.75;;;6.10;99.90;;;;;;5071095;28;20223;-68
2023/04/26 00:36:13;;;;;;;3.75;3.13;;;6.00;99.90;;;;;;5071297;28;20204;-68
2023/04/26 00:38:40;;;;;;;3.63;2.90;;;6.00;99.90;;;;;;5063124;28;20206;-68
2023/04/26 00:41:08;;;;;;;4.32;3.20;;;6.00;99.90;;;;;;5071162;28;20204;-68
2023/04/26 00:43:35;;;;;;;3.78;3.20;;;6.00;99.90;;;;;;5071018;28;20579;-68
2023/04/26 00:46:01;;;;;;;5.90;3.10;;;6.00;99.90;;;;;;5071344;28;20303;-68
2023/04/26 00:48:29;;;;;;;3.33;2.55;;;5.90;99.90;;;;;;5071082;28;20223;-68
2023/04/26 00:50:56;;;;;;;4.78;3.13;;;5.90;99.90;;;;;;5070897;28;20204;-68
2023/04/26 00:53:23;;;;;;;3.85;3.45;;;6.00;99.90;;;;;;5070371;28;20684;-68
2023/04/26 00:55:51;;;;;;;3.78;3.15;;;5.90;99.90;;;;;;5071010;28;20212;-68
2023/04/26 00:58:19;;;;;;;4.20;3.20;;;5.90;99.90;;;;;;5070821;28;20215;-68
2023/04/26 01:00:46;;;;;;;5.20;3.17;;;5.90;99.90;;;;;;5070738;28;20197;-68
2023/04/26 01:03:13;;;;;;;4.97;3.50;;;5.90;99.90;;;;;;5070443;28;20664;-68
2023/04/26 01:05:39;;;;;;;3.42;2.50;;;5.90;99.90;;;;;;5062658;28;20196;-68
2023/04/26 01:08:07;;;;;;;2.80;2.60;;;5.90;99.90;;;;;;5070862;28;20211;-68
2023/04/26 01:10:35;;;;;;;5.68;2.67;;;5.90;99.90;;;;;;5070653;28;20227;-67
2023/04/26 01:13:03;;;;;;;4.57;2.50;;;5.90;99.90;;;;;;5070122;28;20220;-68
2023/04/26 01:15:32;;;;;;;5.78;3.33;;;5.90;99.90;;;;;;5070692;28;20290;-68
2023/04/26 01:17:59;;;;;;;4.50;3.10;;;5.90;99.90;;;;;;5070290;28;20672;-68
2023/04/26 01:20:25;;;;;;;8.70;3.25;;;5.80;99.90;;;;;;5070585;28;20602;-68
2023/04/26 01:22:53;;;;;;;6.65;3.20;;;5.80;99.90;;;;;;5067752;28;20306;-68
2023/04/26 01:25:21;;;;;;;6.68;3.15;;;5.80;99.90;;;;;;5070197;28;20193;-68
2023/04/26 01:27:48;;;;;;;5.70;3.67;;;5.80;99.90;;;;;;5070187;28;20193;-68
2023/04/26 01:30:14;;;;;;;5.93;3.17;;;5.80;99.90;;;;;;5068742;28;20208;-68
2023/04/26 01:32:41;;;;;;;3.65;2.60;;;5.80;99.90;;;;;;5069247;28;20216;-67
2023/04/26 01:35:08;;;;;;;3.13;2.83;;;5.80;99.90;;;;;;5069891;28;20223;-67
2023/04/26 01:37:35;;;;;;;3.53;2.70;;;5.70;99.90;;;;;;5069519;28;20212;-67
2023/04/26 01:40:05;;;;;;;4.15;2.55;;;5.70;99.90;;;;;;5070022;28;20695;-67
2023/04/26 01:42:32;;;;;;;7.72;3.00;;;5.60;99.90;;;;;;5069423;28;20299;-67
2023/04/26 01:44:58;;;;;;;3.05;2.72;;;5.60;99.90;;;;;;5069189;28;20196;-67
2023/04/26 01:47:26;;;;;;;5.10;3.13;;;5.50;99.90;;;;;;5069768;28;20200;-68
2023/04/26 01:49:53;;;;;;;4.00;3.28;;;5.40;99.90;;;;;;5069922;28;20287;-68
2023/04/26 01:52:21;;;;;;;6.47;3.38;;;5.40;99.90;;;;;;5068835;28;20219;-68
2023/04/26 01:54:48;;;;;;;4.13;3.60;;;5.40;99.90;;;;;;5069819;28;20216;-67
2023/04/26 01:57:16;;;;;;;6.35;3.20;;;5.30;99.90;;;;;;5068877;28;20204;-67
2023/04/26 01:59:42;;;;;;;3.67;2.78;;;5.30;99.90;;;;;;5069787;28;20208;-67
2023/04/26 02:02:09;;;;;;;5.82;3.60;;;5.30;99.90;;;;;;5069096;28;20200;-68
2023/04/26 02:04:36;;;;;;;8.60;3.45;;;5.30;99.90;;;;;;5069521;28;20735;-67
2023/04/26 02:07:02;;;;;;;5.25;3.67;;;5.30;99.90;;;;;;5069330;28;20200;-68
2023/04/26 02:09:29;;;;;;;3.20;2.63;;;5.30;99.90;;;;;;5069134;28;20219;-68
2023/04/26 02:11:56;;;;;;;5.97;3.35;;;5.20;99.90;;;;;;5069228;28;20208;-68
2023/04/26 02:14:24;;;;;;;4.20;3.35;;;5.20;99.90;;;;;;5068895;28;20227;-68
2023/04/26 02:16:51;;;;;;;2.85;2.55;;;5.10;99.90;;;;;;5069834;28;20497;-68
2023/04/26 02:19:18;;;;;;;3.08;2.70;;;5.10;99.90;;;;;;5069378;28;20204;-68
2023/04/26 02:21:52;;;;;;;2.63;2.10;;;5.00;99.90;;;;;;5059554;28;20231;-68
2023/04/26 02:24:20;;;;;;;6.18;3.28;;;4.90;99.90;;;;;;5080056;22;20249;-94
2023/04/26 02:26:47;;;;;;;3.03;2.83;;;4.80;99.90;;;;;;5027778;28;20190;-95
2023/04/26 02:29:14;;;;;;;4.30;3.00;;;4.70;99.90;;;;;;5027816;28;20203;-95
2023/04/26 02:31:42;;;;;;;3.28;2.70;;;4.70;99.90;;;;;;5061035;23;20315;-72
2023/04/26 02:34:09;;;;;;;3.22;2.70;;;4.70;99.90;;;;;;5054276;28;20595;-72
2023/04/26 02:36:35;;;;;;;3.40;2.85;;;4.60;99.90;;;;;;5049809;28;21040;-72
2023/04/26 02:39:03;;;;;;;3.40;2.45;;;4.50;99.90;;;;;;5050072;28;20217;-72
2023/04/26 02:41:32;;;;;;;3.92;2.85;;;4.40;99.90;;;;;;5051632;28;20610;-72
2023/04/26 02:43:59;;;;;;;6.80;3.40;;;4.30;99.90;;;;;;5042611;28;20241;-72
2023/04/26 02:46:26;;;;;;;3.53;2.90;;;4.10;99.90;;;;;;5051371;28;20204;-72
2023/04/26 02:48:54;;;;;;;7.85;3.55;;;4.10;99.90;;;;;;5050359;28;20220;-72
2023/04/26 02:51:21;;;;;;;5.38;3.15;;;4.10;99.90;;;;;;5049924;28;20211;-72
2023/04/26 02:53:47;;;;;;;4.07;3.17;;;4.20;99.90;;;;;;5041744;28;20218;-71
2023/04/26 02:56:15;;;;;;;4.90;2.60;;;4.20;99.90;;;;;;5049754;28;20211;-72
2023/04/26 02:58:41;;;;;;;6.95;3.50;;;4.20;99.90;;;;;;5041880;28;20576;-71
2023/04/26 03:01:09;;;;;;;7.97;2.53;;;4.20;99.90;;;;;;5048156;28;20255;-72
2023/04/26 03:03:36;;;;;;;2.63;2.03;;;4.20;99.90;;;;;;5053869;28;20249;-71
2023/04/26 03:06:04;;;;;;;3.90;2.90;;;4.20;99.90;;;;;;5054599;28;20323;-71
2023/04/26 03:08:31;;;;;;;3.53;3.22;;;4.20;99.90;;;;;;5045339;28;20197;-71
2023/04/26 03:10:57;;;;;;;5.40;3.22;;;4.20;99.90;;;;;;5048753;28;20208;-71
2023/04/26 03:13:24;;;;;;;3.10;2.42;;;4.20;99.90;;;;;;5041256;28;20228;-71
2023/04/26 03:15:52;;;;;;;3.40;2.90;;;4.30;99.90;;;;;;5047373;28;20221;-71
2023/04/26 03:18:19;;;;;;;3.35;2.80;;;4.30;99.90;;;;;;5052858;28;20280;-71
2023/04/26 03:20:46;;;;;;;4.05;3.30;;;4.30;99.90;;;;;;5049867;28;20260;-71
2023/04/26 03:23:14;;;;;;;5.70;2.88;;;4.30;99.90;;;;;;5047936;28;20232;-71
2023/04/26 03:25:41;;;;;;;2.90;2.60;;;4.30;99.90;;;;;;5044746;28;20197;-71
2023/04/26 03:28:07;;;;;;;3.10;2.85;;;4.20;99.90;;;;;;5052671;28;20201;-71
2023/04/26 03:30:34;;;;;;;3.20;2.65;;;4.20;99.90;;;;;;5052439;28;20216;-71
2023/04/26 03:33:01;;;;;;;6.30;3.78;;;4.10;99.90;;;;;;5049390;28;20240;-71
2023/04/26 03:35:28;;;;;;;4.95;3.28;;;4.00;99.90;;;;;;5046554;28;20221;-71
2023/04/26 03:37:54;;;;;;;3.13;2.80;;;4.00;99.90;;;;;;5046891;28;20209;-71
2023/04/26 03:40:22;;;;;;;7.47;3.50;;;4.00;99.90;;;;;;5043424;28;20288;-71
2023/04/26 03:42:49;;;;;;;4.55;3.05;;;4.00;99.90;;;;;;5047945;28;20213;-71
2023/04/26 03:45:16;;;;;;;6.32;3.17;;;4.00;99.90;;;;;;5045989;28;20555;-72
2023/04/26 03:47:43;;;;;;;3.60;3.30;;;3.90;99.90;;;;;;5047768;28;20252;-72
2023/04/26 03:50:10;;;;;;;4.32;2.90;;;3.80;99.90;;;;;;5050835;28;20197;-72
2023/04/26 03:52:37;;;;;;;6.80;3.72;;;3.80;99.90;;;;;;5049698;28;20220;-72
2023/04/26 03:55:04;;;;;;;3.45;3.13;;;3.70;99.90;;;;;;5049888;28;20236;-72
2023/04/26 03:57:32;;;;;;;3.70;3.15;;;3.60;99.90;;;;;;5045501;28;20202;-72
2023/04/26 03:59:59;;;;;;;3.80;3.30;;;3.60;99.90;;;;;;5047505;28;20216;-72
2023/04/26 04:02:26;;;;;;;4.82;2.88;;;3.50;99.90;;;;;;5046042;28;20573;-71
2023/04/26 04:04:52;;;;;;;2.92;2.63;;;3.40;99.90;;;;;;5047593;28;20200;-71
2023/04/26 04:07:20;;;;;;;3.53;3.20;;;3.40;99.90;;;;;;5044003;28;20206;-72
2023/04/26 04:09:47;;;;;;;4.47;3.10;;;3.30;99.90;;;;;;5045120;28;20193;-72
2023/04/26 04:12:14;;;;;;;4.40;3.20;;;3.20;99.90;;;;;;5041910;28;20577;-72
2023/04/26 04:14:42;;;;;;;3.83;3.13;;;3.20;99.90;;;;;;5046266;28;20462;-70
2023/04/26 04:17:08;;;;;;;4.80;3.50;;;3.20;99.90;;;;;;5043937;28;20204;-71
2023/04/26 04:19:36;;;;;;;5.35;3.70;;;3.20;99.90;;;;;;5045284;28;20202;-70
2023/04/26 04:22:03;;;;;;;5.10;3.30;;;3.20;99.90;;;;;;5046588;28;20204;-70
2023/04/26 04:24:31;;;;;;;4.32;3.05;;;3.10;99.90;;;;;;5050527;28;20228;-70
2023/04/26 04:26:58;;;;;;;5.13;3.75;;;3.10;99.90;;;;;;5045484;28;20608;-70
2023/04/26 04:29:25;;;;;;;5.10;3.17;;;3.10;99.90;;;;;;5048140;28;20209;-70
2023/04/26 04:31:53;;;;;;;6.32;4.05;;;3.10;99.90;;;;;;5049747;28;20684;-70
2023/04/26 04:34:20;;;;;;;6.90;4.10;;;3.10;99.90;;;;;;5050322;28;20232;-71
2023/04/26 04:36:47;;;;;;;7.03;3.85;;;3.10;99.90;;;;;;5044321;28;20208;-71
2023/04/26 04:39:15;;;;;;;5.18;3.97;;;3.10;99.90;;;;;;5052323;28;20565;-70
2023/04/26 04:41:46;;;;;;;3.80;3.33;;;3.10;99.90;;;;;;5043617;28;20259;-71
2023/04/26 04:44:14;;;;;;;5.47;3.70;;;3.10;99.90;;;;;;5051909;28;20859;-71
2023/04/26 04:46:41;;;;;;;5.07;4.00;;;3.20;99.90;;;;;;5103938;22;20271;-93
2023/04/26 04:49:11;;;;;;;4.20;3.80;;;3.20;99.90;;;;;;5076248;28;20756;-92
2023/04/26 04:51:38;;;;;;;7.50;4.65;;;3.20;99.90;;;;;;5075878;28;20258;-92
2023/04/26 04:54:11;;;;;;;10.93;3.67;;;3.30;99.90;;;;;;5065822;28;20228;-92
2023/04/26 04:56:38;;;;;;;6.10;4.18;;;3.40;99.90;;;;;;5054984;28;20220;-92
2023/04/26 04:59:05;;;;;;;5.93;4.65;;;3.50;99.90;;;;;;5063722;28;20209;-91
2023/04/26 05:01:32;;;;;;;6.22;4.35;;;3.60;99.90;;;;;;5061591;28;20204;-91
2023/04/26 05:03:59;;;;;;;11.18;4.72;;;3.70;99.90;;;;;;5055760;28;20243;-91
2023/04/26 05:06:27;;;;;;;4.90;4.32;;;3.80;99.90;;;;;;5059194;28;20628;-90
2023/04/26 05:08:54;;;;;;;5.60;4.60;;;3.90;99.90;;;;;;5054532;28;20281;-90
2023/04/26 05:11:21;;;;;;;7.25;4.68;;;4.00;99.90;;;;;;5063546;28;20201;-90
2023/04/26 05:13:48;;;;;;;6.45;4.65;;;4.10;99.90;;;;;;5064195;28;20231;-90
2023/04/26 05:16:15;;;;;;;5.63;4.18;;;4.20;99.90;;;;;;5060251;28;20220;-90
2023/04/26 05:18:42;;;;;;;7.70;4.25;;;4.30;99.90;;;;;;5059816;28;20201;-89
2023/04/26 05:21:09;;;;;;;7.03;4.15;;;4.30;99.90;;;;;;5075323;28;20220;-93
2023/04/26 05:23:37;;;;;;;7.03;4.80;;;4.40;99.90;;;;;;5077528;28;20205;-91
2023/04/26 05:26:04;;;;;;;9.45;4.88;;;4.50;99.90;;;;;;5077103;28;20185;-93
2023/04/26 05:28:31;;;;;;;7.90;5.40;;;4.60;99.90;;;;;;5076724;28;20200;-92
2023/04/26 05:30:58;;;;;;;8.82;5.22;;;4.70;99.90;;;;;;5077138;28;20241;-91
2023/04/26 05:33:25;;;;;;;9.95;5.25;;;4.70;99.90;;;;;;5076845;28;20213;-92
2023/04/26 05:35:53;;;;;;;5.60;4.05;;;4.90;99.90;;;;;;5077041;28;20269;-90
2023/04/26 05:38:20;;;;;;;6.35;4.60;;;5.00;99.90;;;;;;5077611;28;20189;-92
2023/04/26 05:40:48;;;;;;;6.85;5.75;;;5.10;99.90;;;;;;5077921;28;20189;-91
2023/04/26 05:43:15;;;;;;;5.45;3.90;;;5.30;99.90;;;;;;5077431;28;20199;-91
2023/04/26 05:45:50;;;;;;;5.18;3.92;;;5.50;99.90;;;;;;5078130;28;20203;-92
2023/04/26 05:48:17;;;;;;;8.18;5.50;;;5.60;99.90;;;;;;5077980;28;20196;-91
2023/04/26 05:50:44;;;;;;;7.55;6.10;;;5.80;99.90;;;;;;5076801;28;20200;-90
2023/04/26 05:53:11;;;;;;;6.65;4.57;;;5.90;99.90;;;;;;5075326;28;20201;-89
2023/04/26 05:55:38;;;;;;;6.40;4.50;;;5.90;99.90;;;;;;5065099;28;20600;-89
2023/04/26 05:58:06;;;;;;;5.70;4.25;;;6.00;99.90;;;;;;5058862;28;20236;-89
2023/04/26 06:00:34;;;;;;;7.47;4.30;;;6.00;99.90;;;;;;5062586;28;20212;-91
2023/04/26 06:03:01;;;;;;;8.23;5.43;;;6.10;99.90;;;;;;5060118;28;20227;-89
2023/04/26 06:05:28;;;;;;;6.72;4.47;;;6.20;99.90;;;;;;5057404;28;20204;-89
2023/04/26 06:07:55;;;;;;;7.32;4.60;;;6.30;99.90;;;;;;5057125;28;20211;-90
2023/04/26 06:10:22;;;;;;;11.85;5.22;;;6.30;99.90;;;;;;5060368;28;20197;-90
2023/04/26 06:12:48;;;;;;;7.55;4.70;;;6.40;99.90;;;;;;5064132;28;20208;-89
2023/04/26 06:25:15;;;;;;;5.28;3.13;;;7.10;99.90;;;;;;4926116;28;20225;-91
2023/04/26 06:27:49;;;;;;;11.20;3.78;;;7.30;99.90;;;;;;4973444;28;20266;-90
2023/04/26 06:30:33;;;;;;;5.43;3.67;;;7.40;99.90;;;;;;5028475;28;20220;-90
2023/04/26 06:35:30;;;;;;;4.28;3.65;;;7.60;99.90;;;;;;5073897;22;20664;-70
2023/04/26 06:37:56;;;;;;;3.88;2.88;;;7.70;99.90;;;;;;5069187;28;20204;-71
2023/04/26 06:40:23;;;;;;;4.82;3.42;;;7.70;99.90;;;;;;5069051;28;20204;-70
2023/04/26 06:42:50;;;;;;;3.15;2.83;;;7.70;99.90;;;;;;5064143;28;20213;-71
2023/04/26 06:45:17;;;;;;;4.82;3.17;;;7.70;99.90;;;;;;5049115;28;20197;-70
2023/04/26 06:47:44;;;;;;;2.25;2.05;;;7.70;99.90;;;;;;5048558;28;20208;-70
2023/04/26 06:50:11;;;;;;;3.42;2.90;;;7.80;99.90;;;;;;5048813;28;20331;-70
2023/04/26 06:52:39;;;;;;;4.28;3.40;;;8.00;99.90;;;;;;5048339;28;20244;-70
2023/04/26 06:55:07;;;;;;;5.55;3.72;;;8.10;99.90;;;;;;5049133;28;20201;-70
2023/04/26 06:57:34;;;;;;;6.90;4.13;;;8.30;99.90;;;;;;5048615;28;20203;-70
2023/04/26 07:00:01;;;;;;;4.75;3.55;;;8.50;99.90;;;;;;5040233;28;20225;-70
2023/04/26 07:02:27;;;;;;;7.47;4.35;;;8.60;99.90;;;;;;5048519;28;20229;-70
2023/04/26 07:04:54;;;;;;;7.13;4.05;;;8.60;99.90;;;;;;5041022;28;20205;-70
2023/04/26 07:07:21;;;;;;;5.05;3.65;;;8.60;99.90;;;;;;5048185;28;20708;-69
2023/04/26 07:09:49;;;;;;;5.43;3.83;;;8.60;99.90;;;;;;5048903;28;20576;-70
2023/04/26 07:12:16;;;;;;;5.85;3.85;;;8.50;99.90;;;;;;5048253;28;20193;-70
2023/04/26 07:14:42;;;;;;;7.35;3.72;;;8.60;99.90;;;;;;5048323;28;20201;-70
2023/04/26 07:17:09;;;;;;;5.07;4.32;;;8.60;99.90;;;;;;5049392;28;20217;-70
2023/04/26 07:19:36;;;;;;;6.63;4.03;;;8.50;99.90;;;;;;5049073;28;20614;-70
2023/04/26 07:22:03;;;;;;;12.77;4.28;;;8.60;99.90;;;;;;5048974;28;20208;-70
2023/04/26 07:24:30;;;;;;;6.20;4.40;;;8.70;99.90;;;;;;5048374;28;20216;-70
2023/04/26 07:26:58;;;;;;;5.00;4.07;;;8.80;99.90;;;;;;5050030;28;20250;-71
2023/04/26 07:29:25;;;;;;;4.30;3.75;;;9.00;99.90;;;;;;5050760;28;20250;-71
2023/04/26 07:31:51;;;;;;;4.93;3.22;;;9.30;99.90;;;;;;5052483;28;20201;-70
2023/04/26 07:34:18;;;;;;;2.70;2.47;;;9.40;99.90;;;;;;5052261;28;20228;-70
2023/04/26 07:36:45;;;;;;;3.08;2.53;;;9.50;99.90;;;;;;5052080;28;20564;-70
2023/04/26 07:39:11;;;;;;;4.75;3.30;;;9.60;99.90;;;;;;5052264;28;20288;-70
2023/04/26 07:41:38;;;;;;;5.18;3.00;;;9.40;99.90;;;;;;5051929;28;20193;-70
2023/04/26 07:44:06;;;;;;;7.53;3.05;;;9.20;99.90;;;;;;5052592;28;20488;-70
2023/04/26 07:46:33;;;;;;;3.97;3.05;;;9.30;99.90;;;;;;5052366;28;20286;-71
2023/04/26 07:49:00;;;;;;;4.13;2.80;;;9.40;99.90;;;;;;5052067;28;20224;-70
2023/04/26 07:51:27;;;;;;;3.20;2.90;;;9.30;99.90;;;;;;5051600;28;20236;-70
2023/04/26 07:53:55;;;;;;;3.15;2.72;;;9.30;99.90;;;;;;5052033;28;20225;-70
2023/04/26 07:56:22;;;;;;;3.88;2.95;;;9.40;99.90;;;;;;5052053;28;20304;-71
2023/04/26 07:58:49;;;;;;;6.25;3.05;;;9.50;99.90;;;;;;5052288;28;20593;-70
2023/04/26 08:01:17;;;;;;;3.13;2.83;;;9.80;99.90;;;;;;5051120;28;20334;-70
2023/04/26 08:03:44;;;;;;;5.03;3.25;;;9.90;99.90;;;;;;5051665;28;20217;-71
2023/04/26 08:06:11;;;;;;;3.35;2.78;;;9.90;99.90;;;;;;5052273;28;20195;-70
2023/04/26 08:08:43;;;;;;;2.53;2.33;;;10.00;99.90;;;;;;5051849;28;20197;-70
2023/04/26 08:11:10;;;;;;;3.70;2.95;;;9.80;99.90;;;;;;5044025;28;20193;-70
2023/04/26 08:13:37;;;;;;;3.42;2.63;;;9.70;99.90;;;;;;5051648;28;20308;-70
2023/04/26 08:16:04;;;;;;;4.47;2.83;;;9.60;99.90;;;;;;5051687;28;20231;-70
2023/04/26 08:18:32;;;;;;;3.40;3.08;;;9.60;99.90;;;;;;5051480;28;20205;-70
2023/04/26 08:20:59;;;;;;;4.43;2.95;;;9.70;99.90;;;;;;5051271;28;20205;-70
2023/04/26 08:25:53;;;;;;;3.80;2.53;;;10.50;99.90;;;;;;5069320;28;20209;-69
2023/04/26 08:28:20;;;;;;;4.82;3.08;;;11.00;99.90;;;;;;5071410;28;20664;-69
2023/04/26 08:30:52;;;;;;;3.17;2.83;;;11.10;99.90;;;;;;5071340;28;20615;-69
2023/04/26 08:33:19;;;;;;;6.30;3.47;;;11.40;99.90;;;;;;5062432;28;20223;-69
2023/04/26 08:35:47;;;;;;;4.07;3.00;;;11.70;99.90;;;;;;5051413;28;20262;-70
2023/04/26 08:38:14;;;;;;;3.03;2.72;;;12.30;99.90;;;;;;5050560;28;20615;-71
2023/04/26 08:40:43;;;;;;;4.15;3.35;;;12.60;99.90;;;;;;5051463;28;20216;-70
2023/04/26 08:43:11;;;;;;;6.05;3.30;;;12.20;99.00;;;;;;5042966;28;20221;-70
2023/04/26 08:45:40;;;;;;;3.30;2.90;;;11.70;99.40;;;;;;5051293;28;20655;-70
2023/04/26 08:48:13;;;;;;;3.05;2.75;;;11.20;99.40;;;;;;5050878;28;20200;-70
2023/04/26 08:50:42;;;;;;;3.83;3.42;;;10.80;99.40;;;;;;5051174;28;20224;-70
2023/04/26 08:53:14;;;;;;;3.30;2.95;;;10.60;99.90;;;;;;5049736;28;20715;-70
2023/04/26 08:55:42;;;;;;;4.75;3.10;;;10.40;99.90;;;;;;5051133;28;20197;-70
2023/04/26 08:58:11;;;;;;;3.65;2.95;;;10.40;99.90;;;;;;5043019;28;20629;-70
2023/04/26 09:00:38;;;;;;;2.80;2.60;;;10.40;99.90;;;;;;5050967;28;20205;-70
2023/04/26 09:03:05;;;;;;;4.75;3.20;;;10.50;99.90;;;;;;5050623;28;20224;-71
2023/04/26 09:05:34;;;;;;;3.78;3.42;;;10.60;99.90;;;;;;5051229;28;20412;-71
2023/04/26 09:08:02;;;;;;;3.90;3.40;;;10.80;99.90;;;;;;5050845;28;20208;-71
2023/04/26 09:10:31;;;;;;;5.35;3.58;;;11.00;99.90;;;;;;5050921;28;20189;-70
2023/04/26 09:12:58;;;;;;;4.63;3.05;;;11.50;99.90;;;;;;5050372;28;20231;-71
2023/04/26 09:15:26;;;;;;;3.97;3.50;;;11.60;99.90;;;;;;5050912;28;20339;-70
2023/04/26 09:17:53;;;;;;;3.65;3.35;;;11.60;99.90;;;;;;5050827;28;20668;-69
2023/04/26 09:20:22;;;;;;;3.40;2.55;;;11.50;99.70;;;;;;5050690;28;20209;-70
2023/04/26 09:22:50;;;;;;;3.17;2.80;;;11.20;99.60;;;;;;5050230;28;20221;-71
2023/04/26 09:25:19;;;;;;;3.65;3.15;;;11.10;99.40;;;;;;5050446;28;20202;-70
2023/04/26 09:27:47;;;;;;;6.20;3.58;;;10.80;99.00;;;;;;5050518;28;20332;-70
2023/04/26 09:30:16;;;;;;;3.40;3.05;;;10.60;99.90;;;;;;5050390;28;20236;-70
2023/04/26 09:32:48;;;;;;;4.20;3.47;;;10.60;99.90;;;;;;5050335;28;20225;-70
2023/04/26 09:35:22;;;;;;;3.88;3.30;;;10.60;99.90;;;;;;5050433;28;20212;-70
2023/04/26 09:37:53;;;;;;;3.35;2.80;;;10.60;99.90;;;;;;5050209;28;20592;-70
2023/04/26 09:40:21;;;;;;;4.10;3.10;;;10.60;99.90;;;;;;5050233;28;20203;-70
2023/04/26 09:43:00;;;;;;;2.85;2.60;;;10.60;99.90;;;;;;5049809;28;20228;-70
2023/04/26 09:45:27;;;;;;;3.33;3.03;;;10.80;99.90;;;;;;5049958;28;20200;-70
2023/04/26 09:47:55;;;;;;;4.00;3.20;;;10.70;99.90;;;;;;5050244;28;20672;-70
2023/04/26 09:50:29;;;;;;;7.20;3.30;;;11.10;99.90;;;;;;5049159;28;20699;-70
2023/04/26 09:52:56;;;;;;;5.28;2.92;;;12.40;99.90;;;;;;5049500;28;20719;-70
2023/04/26 09:55:27;;;;;;;6.10;3.47;;;13.50;99.90;;;;;;5050279;28;20201;-71
2023/04/26 09:57:55;;;;;;;3.90;2.60;;;14.20;98.50;;;;;;5049950;28;20515;-69
2023/04/26 10:00:23;;;;;;;5.27;3.20;;;15.10;98.20;;;;;;5049986;28;20467;-68
2023/04/26 10:02:50;;;;;;;3.17;2.90;;;15.50;96.30;;;;;;5049609;28;20904;-70
2023/04/26 10:05:17;;;;;;;3.67;3.10;;;16.10;96.50;;;;;;5049750;28;20463;-70
2023/04/26 10:07:45;;;;;;;3.87;3.20;;;16.70;96.00;;;;;;5050221;28;20509;-70
2023/04/26 10:10:12;;;;;;;4.67;3.20;;;16.70;94.60;;;;;;5049844;28;20470;-70
2023/04/26 10:12:42;;;;;;;3.93;3.10;;;16.20;94.50;;;;;;5049114;28;20479;-70
2023/04/26 10:15:11;;;;;;;4.20;3.63;;;15.70;94.40;;;;;;5049403;28;20460;-70
2023/04/26 10:17:38;;;;;;;3.80;3.40;;;15.10;95.00;;;;;;5049676;28;20511;-70
2023/04/26 10:20:10;;;;;;;4.53;3.10;;;14.80;96.20;;;;;;5049296;28;20463;-70
2023/04/26 10:22:43;;;;;;;3.07;2.70;;;14.60;95.10;;;;;;5049356;28;20562;-70
2023/04/26 10:25:10;;;;;;;3.10;2.80;;;13.90;95.40;;;;;;5049351;28;20470;-70
2023/04/26 10:27:50;;;;;;;4.27;3.30;;;13.50;96.90;;;;;;5049674;28;20470;-70
2023/04/26 10:30:21;;;;;;;4.13;2.87;;;13.00;95.90;;;;;;5041122;28;20493;-71
2023/04/26 10:33:16;;;;;;;4.23;2.77;;;12.80;97.10;;;;;;5049147;28;20517;-70
2023/04/26 10:36:09;;;;;;;5.80;2.93;;;12.80;97.20;;;;;;5049853;28;20482;-70
2023/04/26 10:38:40;;;;;;;3.40;3.00;;;13.10;96.40;;;;;;5049636;28;20463;-70
2023/04/26 10:41:43;;;;;;;7.93;3.30;;;13.30;95.60;;;;;;5048886;28;20461;-70
2023/04/26 10:44:37;;;;;;;3.90;2.80;;;13.40;96.30;;;;;;5042418;28;20489;-69
2023/04/26 10:47:06;;;;;;;5.00;2.50;;;13.70;96.80;;;;;;5043202;28;20487;-70
2023/04/26 10:49:45;;;;;;;4.10;2.77;;;13.90;96.70;;;;;;5049416;28;20494;-69
2023/04/26 10:52:15;;;;;;;3.10;2.80;;;14.20;96.20;;;;;;5048748;28;20471;-70
2023/04/26 10:54:52;;;;;;;3.23;2.67;;;14.40;95.80;;;;;;5049779;28;20467;-71
2023/04/26 10:57:20;;;;;;;3.00;2.77;;;14.30;95.40;;;;;;5049368;28;20482;-69
2023/04/26 11:00:20;;;;;;;3.13;2.80;;;14.30;95.30;;;;;;5049411;28;20530;-70
2023/04/26 11:02:54;;;;;;;3.93;2.80;;;14.00;95.20;;;;;;5052456;28;20891;-70
2023/04/26 11:05:47;;;;;;;3.47;2.67;;;13.60;95.20;;;;;;5053101;28;20562;-70
2023/04/26 11:08:19;;;;;;;2.90;2.60;;;13.60;94.40;;;;;;5038399;28;20822;-70
2023/04/26 11:10:50;;;;;;;3.20;2.60;;;13.50;94.90;;;;;;5053310;28;20864;-69
2023/04/26 11:13:18;;;;;;;3.93;3.07;;;13.50;94.60;;;;;;5052576;28;20514;-70
2023/04/26 11:15:45;;;;;;;3.13;2.70;;;13.40;94.70;;;;;;5053035;28;20541;-70
2023/04/26 11:18:13;;;;;;;4.73;3.30;;;13.50;95.80;;;;;;5052445;28;20533;-68
2023/04/26 11:20:39;;;;;;;3.90;2.30;;;13.70;94.70;;;;;;5052934;28;20470;-70
2023/04/26 11:23:08;;;;;;;2.47;2.20;;;14.20;94.80;;;;;;5050917;28;20483;-69
2023/04/26 11:25:35;;;;;;;7.40;2.70;;;14.60;95.00;;;;;;5052799;28;20455;-69
2023/04/26 11:28:03;;;;;;;3.87;2.87;;;15.10;94.60;;;;;;5052302;28;20498;-69
2023/04/26 11:30:30;;;;;;;4.50;2.53;;;15.40;94.40;;;;;;5052769;28;20455;-69
2023/04/26 11:32:58;;;;;;;4.33;3.00;;;15.60;94.10;;;;;;5051730;28;20513;-69
2023/04/26 11:35:26;;;;;;;3.10;2.70;;;16.00;92.70;;;;;;5052719;28;20490;-69
2023/04/26 11:37:53;;;;;;;3.27;2.30;;;16.50;92.40;;;;;;5052221;28;21038;-69
2023/04/26 11:40:20;;;;;;;3.10;2.57;;;17.00;91.40;;;;;;5052248;28;20471;-69
2023/04/26 11:42:47;;;;;;;2.40;2.20;;;17.20;91.30;;;;;;5051928;28;20475;-70
2023/04/26 11:45:16;;;;;;;4.73;2.60;;;16.50;89.70;;;;;;5052065;28;20463;-69
2023/04/26 11:47:44;;;;;;;3.80;2.97;;;16.70;92.70;;;;;;5052350;28;20542;-69
2023/04/26 11:50:11;;;;;;;3.60;2.70;;;17.00;90.20;;;;;;5051553;28;20470;-70
2023/04/26 11:52:40;;;;;;;8.90;3.47;;;17.00;90.20;;;;;;5051815;28;20537;-71
2023/04/26 11:55:09;;;;;;;2.73;2.43;;;16.50;89.90;;;;;;5051963;28;20478;-70
2023/04/26 11:57:36;;;;;;;3.43;2.23;;;16.20;92.00;;;;;;5052093;28;20876;-71
2023/04/26 12:00:11;;;;;;;2.63;2.40;;;16.80;91.60;;;;;;5051798;28;20467;-69
2023/04/26 12:02:38;;;;;;;2.40;2.20;;;16.60;91.40;;;;;;5051670;28;20483;-71
2023/04/26 12:05:07;;;;;;;2.90;2.60;;;16.60;91.60;;;;;;5051968;28;20950;-70
2023/04/26 12:07:36;;;;;;;2.87;2.30;;;16.70;91.30;;;;;;5051653;28;20464;-70
2023/04/26 12:10:16;;;;;;;3.73;2.53;;;16.90;90.70;;;;;;5051684;28;20460;-70
2023/04/26 12:12:48;;;;;;;3.07;2.23;;;16.80;91.10;;;;;;5050567;28;20580;-71
2023/04/26 12:15:15;;;;;;;3.03;2.57;;;16.60;91.60;;;;;;5051497;28;20682;-70
2023/04/26 12:17:52;;;;;;;3.20;2.63;;;16.50;92.20;;;;;;5051558;28;20475;-70
2023/04/26 12:20:19;;;;;;;3.10;2.40;;;16.30;91.00;;;;;;5043339;28;20466;-70
2023/04/26 12:22:58;;;;;;;2.77;2.53;;;16.20;91.70;;;;;;5051328;28;20894;-70
2023/04/26 12:25:26;;;;;;;2.50;2.30;;;16.00;91.80;;;;;;5051605;28;20714;-70
2023/04/26 12:27:53;;;;;;;2.53;2.30;;;15.60;91.90;;;;;;5051648;28;20546;-68
2023/04/26 12:30:20;;;;;;;2.73;2.50;;;15.50;91.80;;;;;;5043376;28;20475;-70
2023/04/26 12:32:47;;;;;;;3.80;2.30;;;15.20;92.10;;;;;;5051489;28;20486;-70
2023/04/26 12:35:13;;;;;;;2.73;2.53;;;15.00;92.00;;;;;;5051301;28;20482;-71
2023/04/26 12:37:40;;;;;;;2.53;2.40;;;14.60;90.40;;;;;;5051235;28;20486;-69
2023/04/26 12:40:09;;;;;;;5.33;2.83;;;14.40;91.10;;;;;;5051124;28;20467;-69
2023/04/26 12:42:37;;;;;;;2.23;2.03;;;14.30;91.80;;;;;;5048770;28;20555;-69
2023/04/26 12:45:04;;;;;;;3.77;2.37;;;14.40;93.50;;;;;;5051490;28;20471;-70
2023/04/26 12:47:32;;;;;;;2.87;2.57;;;15.10;94.10;;;;;;5051261;28;20462;-69
2023/04/26 12:49:59;;;;;;;2.30;2.10;;;15.20;90.40;;;;;;5042852;28;20463;-70
2023/04/26 12:52:26;;;;;;;4.43;2.43;;;15.00;90.90;;;;;;5042524;28;20811;-70
2023/04/26 12:54:53;;;;;;;2.97;2.20;;;15.00;90.40;;;;;;5040403;28;20510;-70
2023/04/26 12:57:20;;;;;;;4.50;2.50;;;14.90;89.70;;;;;;5034203;28;20479;-68
2023/04/26 12:59:48;;;;;;;3.83;2.53;;;14.90;90.30;;;;;;5044214;28;20461;-70
2023/04/26 13:02:15;;;;;;;3.27;2.40;;;14.60;88.10;;;;;;5046728;28;20470;-69
2023/04/26 13:04:42;;;;;;;3.00;1.70;;;14.70;91.80;;;;;;5046095;28;20464;-69
2023/04/26 13:07:09;;;;;;;3.60;1.60;;;15.00;92.10;;;;;;5050290;28;20546;-69
2023/04/26 13:09:36;;;;;;;2.10;1.90;;;15.20;92.20;;;;;;5050651;28;20467;-70
2023/04/26 13:12:02;;;;;;;2.90;2.60;;;15.80;92.20;;;;;;5050132;28;20465;-69
2023/04/26 13:14:29;;;;;;;2.57;1.93;;;16.90;92.80;;;;;;5050360;28;20556;-69